sensor_id;sensor_type;location;lat;lon;timestamp;P1;durP1;ratioP1;P2;durP2;ratioP2
44985;SDS011;30721;49.380;7.736;2023-04-25T00:00:29;9.35;;;5.72;;
44985;SDS011;30721;49.380;7.736;2023-04-25T00:02:55;8.05;;;5.30;;
44985;SDS011;30721;49.380;7.736;2023-04-25T00:05:25;8.98;;;5.38;;
44985;SDS011;30721;49.380;7.736;2023-04-25T00:07:51;8.50;;;5.35;;
44985;SDS011;30721;49.380;7.736;2023-04-25T00:10:16;8.55;;;5.68;;
44985;SDS011;30721;49.380;7.736;2023-04-25T00:12:42;11.27;;;6.63;;
44985;SDS011;30721;49.380;7.736;2023-04-25T00:15:07;8.60;;;5.72;;
44985;SDS011;30721;49.380;7.736;2023-04-25T00:17:34;9.38;;;6.32;;
44985;SDS011;30721;49.380;7.736;2023-04-25T00:20:00;9.77;;;6.40;;
44985;SDS011;30721;49.380;7.736;2023-04-25T00:22:29;9.68;;;5.70;;
44985;SDS011;30721;49.380;7.736;2023-04-25T00:24:55;9.80;;;6.63;;
44985;SDS011;30721;49.380;7.736;2023-04-25T00:27:22;12.00;;;6.80;;
44985;SDS011;30721;49.380;7.736;2023-04-25T00:29:47;10.82;;;7.22;;
44985;SDS011;30721;49.380;7.736;2023-04-25T00:32:13;10.50;;;6.80;;
44985;SDS011;30721;49.380;7.736;2023-04-25T00:34:38;11.45;;;7.00;;
44985;SDS011;30721;49.380;7.736;2023-04-25T00:37:03;10.00;;;6.90;;
44985;SDS011;30721;49.380;7.736;2023-04-25T00:39:29;10.15;;;7.20;;
44985;SDS011;30721;49.380;7.736;2023-04-25T00:41:55;11.27;;;6.72;;
44985;SDS011;30721;49.380;7.736;2023-04-25T00:44:20;8.60;;;6.20;;
44985;SDS011;30721;49.380;7.736;2023-04-25T00:46:49;8.75;;;6.63;;
44985;SDS011;30721;49.380;7.736;2023-04-25T00:49:15;10.10;;;6.88;;
44985;SDS011;30721;49.380;7.736;2023-04-25T00:51:42;10.00;;;7.10;;
44985;SDS011;30721;49.380;7.736;2023-04-25T00:54:10;9.73;;;7.55;;
44985;SDS011;30721;49.380;7.736;2023-04-25T00:56:37;9.75;;;6.38;;
44985;SDS011;30721;49.380;7.736;2023-04-25T00:59:03;9.00;;;6.38;;
44985;SDS011;30721;49.380;7.736;2023-04-25T01:01:28;10.07;;;6.68;;
44985;SDS011;30721;49.380;7.736;2023-04-25T01:03:54;9.35;;;6.43;;
44985;SDS011;30721;49.380;7.736;2023-04-25T01:06:21;10.52;;;7.00;;
44985;SDS011;30721;49.380;7.736;2023-04-25T01:08:47;9.85;;;6.78;;
44985;SDS011;30721;49.380;7.736;2023-04-25T01:11:13;9.75;;;6.55;;
44985;SDS011;30721;49.380;7.736;2023-04-25T01:13:38;9.38;;;6.43;;
44985;SDS011;30721;49.380;7.736;2023-04-25T01:16:04;9.50;;;6.70;;
44985;SDS011;30721;49.380;7.736;2023-04-25T01:18:30;9.50;;;6.40;;
44985;SDS011;30721;49.380;7.736;2023-04-25T01:20:55;9.18;;;5.80;;
44985;SDS011;30721;49.380;7.736;2023-04-25T01:23:21;9.10;;;5.57;;
44985;SDS011;30721;49.380;7.736;2023-04-25T01:25:47;9.35;;;5.90;;
44985;SDS011;30721;49.380;7.736;2023-04-25T01:28:13;7.57;;;5.10;;
44985;SDS011;30721;49.380;7.736;2023-04-25T01:30:39;7.43;;;5.38;;
44985;SDS011;30721;49.380;7.736;2023-04-25T01:33:04;8.55;;;5.40;;
44985;SDS011;30721;49.380;7.736;2023-04-25T01:35:31;8.07;;;5.80;;
44985;SDS011;30721;49.380;7.736;2023-04-25T01:37:57;8.50;;;5.50;;
44985;SDS011;30721;49.380;7.736;2023-04-25T01:40:22;8.77;;;5.40;;
44985;SDS011;30721;49.380;7.736;2023-04-25T01:42:49;7.05;;;4.82;;
44985;SDS011;30721;49.380;7.736;2023-04-25T01:45:14;7.55;;;5.07;;
44985;SDS011;30721;49.380;7.736;2023-04-25T01:47:40;7.35;;;4.97;;
44985;SDS011;30721;49.380;7.736;2023-04-25T01:50:08;7.20;;;5.03;;
44985;SDS011;30721;49.380;7.736;2023-04-25T01:52:33;7.63;;;5.22;;
44985;SDS011;30721;49.380;7.736;2023-04-25T01:54:59;8.00;;;5.60;;
44985;SDS011;30721;49.380;7.736;2023-04-25T01:57:26;7.60;;;5.07;;
44985;SDS011;30721;49.380;7.736;2023-04-25T01:59:53;6.45;;;4.68;;
44985;SDS011;30721;49.380;7.736;2023-04-25T02:02:25;7.75;;;5.35;;
44985;SDS011;30721;49.380;7.736;2023-04-25T02:04:51;6.60;;;5.43;;
44985;SDS011;30721;49.380;7.736;2023-04-25T02:07:16;9.00;;;6.40;;
44985;SDS011;30721;49.380;7.736;2023-04-25T02:09:42;6.40;;;4.78;;
44985;SDS011;30721;49.380;7.736;2023-04-25T02:12:09;7.13;;;5.15;;
44985;SDS011;30721;49.380;7.736;2023-04-25T02:14:34;10.07;;;6.45;;
44985;SDS011;30721;49.380;7.736;2023-04-25T02:17:00;8.50;;;6.25;;
44985;SDS011;30721;49.380;7.736;2023-04-25T02:19:25;8.98;;;6.38;;
44985;SDS011;30721;49.380;7.736;2023-04-25T02:21:51;8.48;;;6.40;;
44985;SDS011;30721;49.380;7.736;2023-04-25T02:24:16;8.77;;;5.85;;
44985;SDS011;30721;49.380;7.736;2023-04-25T02:26:42;9.52;;;6.15;;
44985;SDS011;30721;49.380;7.736;2023-04-25T02:29:07;8.35;;;6.07;;
44985;SDS011;30721;49.380;7.736;2023-04-25T02:31:35;10.93;;;6.90;;
44985;SDS011;30721;49.380;7.736;2023-04-25T02:34:01;8.40;;;5.93;;
44985;SDS011;30721;49.380;7.736;2023-04-25T02:36:26;9.93;;;5.88;;
44985;SDS011;30721;49.380;7.736;2023-04-25T02:38:52;9.68;;;6.18;;
44985;SDS011;30721;49.380;7.736;2023-04-25T02:41:18;9.45;;;6.15;;
44985;SDS011;30721;49.380;7.736;2023-04-25T02:43:43;10.88;;;6.18;;
44985;SDS011;30721;49.380;7.736;2023-04-25T02:46:09;10.68;;;7.05;;
44985;SDS011;30721;49.380;7.736;2023-04-25T02:48:34;9.85;;;6.53;;
44985;SDS011;30721;49.380;7.736;2023-04-25T02:51:00;10.02;;;7.15;;
44985;SDS011;30721;49.380;7.736;2023-04-25T02:53:25;11.65;;;6.80;;
44985;SDS011;30721;49.380;7.736;2023-04-25T02:55:51;12.05;;;7.32;;
44985;SDS011;30721;49.380;7.736;2023-04-25T02:58:17;11.63;;;6.82;;
44985;SDS011;30721;49.380;7.736;2023-04-25T03:00:43;13.32;;;8.00;;
44985;SDS011;30721;49.380;7.736;2023-04-25T03:03:08;12.18;;;6.50;;
44985;SDS011;30721;49.380;7.736;2023-04-25T03:05:34;11.27;;;7.38;;
44985;SDS011;30721;49.380;7.736;2023-04-25T03:07:59;10.38;;;6.88;;
44985;SDS011;30721;49.380;7.736;2023-04-25T03:10:25;10.60;;;7.00;;
44985;SDS011;30721;49.380;7.736;2023-04-25T03:12:51;11.60;;;7.65;;
44985;SDS011;30721;49.380;7.736;2023-04-25T03:15:16;12.88;;;7.70;;
44985;SDS011;30721;49.380;7.736;2023-04-25T03:17:42;12.90;;;8.30;;
44985;SDS011;30721;49.380;7.736;2023-04-25T03:20:08;13.32;;;8.40;;
44985;SDS011;30721;49.380;7.736;2023-04-25T03:22:34;13.55;;;8.10;;
44985;SDS011;30721;49.380;7.736;2023-04-25T03:24:59;11.25;;;8.13;;
44985;SDS011;30721;49.380;7.736;2023-04-25T03:27:25;15.02;;;9.02;;
44985;SDS011;30721;49.380;7.736;2023-04-25T03:29:50;13.00;;;8.98;;
44985;SDS011;30721;49.380;7.736;2023-04-25T03:32:16;14.85;;;10.13;;
44985;SDS011;30721;49.380;7.736;2023-04-25T03:34:41;16.75;;;10.70;;
44985;SDS011;30721;49.380;7.736;2023-04-25T03:37:07;15.68;;;9.90;;
44985;SDS011;30721;49.380;7.736;2023-04-25T03:39:32;13.82;;;9.35;;
44985;SDS011;30721;49.380;7.736;2023-04-25T03:41:58;16.67;;;10.95;;
44985;SDS011;30721;49.380;7.736;2023-04-25T03:44:23;15.52;;;9.98;;
44985;SDS011;30721;49.380;7.736;2023-04-25T03:46:49;14.15;;;9.63;;
44985;SDS011;30721;49.380;7.736;2023-04-25T03:49:18;16.20;;;10.70;;
44985;SDS011;30721;49.380;7.736;2023-04-25T03:51:43;15.57;;;10.07;;
44985;SDS011;30721;49.380;7.736;2023-04-25T03:54:08;15.23;;;9.57;;
44985;SDS011;30721;49.380;7.736;2023-04-25T03:56:34;16.80;;;10.45;;
44985;SDS011;30721;49.380;7.736;2023-04-25T03:58:59;14.77;;;9.60;;
44985;SDS011;30721;49.380;7.736;2023-04-25T04:01:25;17.05;;;11.73;;
44985;SDS011;30721;49.380;7.736;2023-04-25T04:03:51;16.23;;;10.75;;
44985;SDS011;30721;49.380;7.736;2023-04-25T04:06:16;13.80;;;9.65;;
44985;SDS011;30721;49.380;7.736;2023-04-25T04:08:42;11.98;;;8.30;;
44985;SDS011;30721;49.380;7.736;2023-04-25T04:11:07;14.65;;;9.50;;
44985;SDS011;30721;49.380;7.736;2023-04-25T04:13:33;14.57;;;9.02;;
44985;SDS011;30721;49.380;7.736;2023-04-25T04:15:58;14.35;;;9.52;;
44985;SDS011;30721;49.380;7.736;2023-04-25T04:18:24;14.02;;;9.57;;
44985;SDS011;30721;49.380;7.736;2023-04-25T04:20:49;17.50;;;10.40;;
44985;SDS011;30721;49.380;7.736;2023-04-25T04:23:15;18.52;;;10.27;;
44985;SDS011;30721;49.380;7.736;2023-04-25T04:25:46;13.25;;;8.95;;
44985;SDS011;30721;49.380;7.736;2023-04-25T04:28:12;13.77;;;8.73;;
44985;SDS011;30721;49.380;7.736;2023-04-25T04:30:38;14.73;;;9.35;;
44985;SDS011;30721;49.380;7.736;2023-04-25T04:33:06;14.18;;;9.00;;
44985;SDS011;30721;49.380;7.736;2023-04-25T04:35:32;11.38;;;8.23;;
44985;SDS011;30721;49.380;7.736;2023-04-25T04:37:57;14.35;;;9.75;;
44985;SDS011;30721;49.380;7.736;2023-04-25T04:40:23;14.82;;;9.82;;
44985;SDS011;30721;49.380;7.736;2023-04-25T04:42:48;12.25;;;8.65;;
44985;SDS011;30721;49.380;7.736;2023-04-25T04:45:14;13.48;;;9.70;;
44985;SDS011;30721;49.380;7.736;2023-04-25T04:47:40;13.05;;;8.68;;
44985;SDS011;30721;49.380;7.736;2023-04-25T04:50:06;13.07;;;8.75;;
44985;SDS011;30721;49.380;7.736;2023-04-25T04:52:37;14.25;;;9.35;;
44985;SDS011;30721;49.380;7.736;2023-04-25T04:55:03;11.95;;;8.60;;
44985;SDS011;30721;49.380;7.736;2023-04-25T04:57:30;14.88;;;10.00;;
44985;SDS011;30721;49.380;7.736;2023-04-25T04:59:58;16.30;;;9.55;;
44985;SDS011;30721;49.380;7.736;2023-04-25T05:02:24;17.58;;;11.05;;
44985;SDS011;30721;49.380;7.736;2023-04-25T05:04:49;25.27;;;16.15;;
44985;SDS011;30721;49.380;7.736;2023-04-25T05:07:19;21.65;;;14.63;;
44985;SDS011;30721;49.380;7.736;2023-04-25T05:10:10;18.63;;;12.27;;
44985;SDS011;30721;49.380;7.736;2023-04-25T05:12:35;20.88;;;14.07;;
44985;SDS011;30721;49.380;7.736;2023-04-25T05:15:01;18.35;;;12.88;;
44985;SDS011;30721;49.380;7.736;2023-04-25T05:17:27;17.73;;;11.35;;
44985;SDS011;30721;49.380;7.736;2023-04-25T05:19:53;16.58;;;10.60;;
44985;SDS011;30721;49.380;7.736;2023-04-25T05:22:18;15.02;;;10.05;;
44985;SDS011;30721;49.380;7.736;2023-04-25T05:24:44;18.13;;;11.52;;
44985;SDS011;30721;49.380;7.736;2023-04-25T05:27:09;17.10;;;11.95;;
44985;SDS011;30721;49.380;7.736;2023-04-25T05:29:34;17.85;;;11.45;;
44985;SDS011;30721;49.380;7.736;2023-04-25T05:32:00;15.75;;;10.35;;
44985;SDS011;30721;49.380;7.736;2023-04-25T05:34:25;16.92;;;11.00;;
44985;SDS011;30721;49.380;7.736;2023-04-25T05:36:51;18.73;;;11.82;;
44985;SDS011;30721;49.380;7.736;2023-04-25T05:39:17;16.55;;;11.25;;
44985;SDS011;30721;49.380;7.736;2023-04-25T05:41:42;17.75;;;11.10;;
44985;SDS011;30721;49.380;7.736;2023-04-25T05:44:08;20.45;;;12.20;;
44985;SDS011;30721;49.380;7.736;2023-04-25T05:46:54;16.67;;;10.25;;
44985;SDS011;30721;49.380;7.736;2023-04-25T05:49:19;16.48;;;10.57;;
44985;SDS011;30721;49.380;7.736;2023-04-25T05:51:45;16.63;;;11.13;;
44985;SDS011;30721;49.380;7.736;2023-04-25T05:54:10;16.92;;;10.80;;
44985;SDS011;30721;49.380;7.736;2023-04-25T05:56:36;17.40;;;10.90;;
44985;SDS011;30721;49.380;7.736;2023-04-25T05:59:01;17.45;;;11.68;;
44985;SDS011;30721;49.380;7.736;2023-04-25T06:01:28;17.77;;;11.52;;
44985;SDS011;30721;49.380;7.736;2023-04-25T06:03:53;18.95;;;10.85;;
44985;SDS011;30721;49.380;7.736;2023-04-25T06:06:19;17.85;;;10.80;;
44985;SDS011;30721;49.380;7.736;2023-04-25T06:08:44;17.00;;;11.00;;
44985;SDS011;30721;49.380;7.736;2023-04-25T06:11:10;16.33;;;10.45;;
44985;SDS011;30721;49.380;7.736;2023-04-25T06:13:35;18.48;;;10.88;;
44985;SDS011;30721;49.380;7.736;2023-04-25T06:16:01;17.08;;;10.38;;
44985;SDS011;30721;49.380;7.736;2023-04-25T06:18:26;16.00;;;10.20;;
44985;SDS011;30721;49.380;7.736;2023-04-25T06:20:52;16.08;;;10.05;;
44985;SDS011;30721;49.380;7.736;2023-04-25T06:23:17;15.55;;;9.93;;
44985;SDS011;30721;49.380;7.736;2023-04-25T06:25:43;14.95;;;9.95;;
44985;SDS011;30721;49.380;7.736;2023-04-25T06:28:08;15.93;;;9.93;;
44985;SDS011;30721;49.380;7.736;2023-04-25T06:30:34;14.52;;;8.82;;
44985;SDS011;30721;49.380;7.736;2023-04-25T06:32:59;16.65;;;9.48;;
44985;SDS011;30721;49.380;7.736;2023-04-25T06:35:25;13.80;;;9.20;;
44985;SDS011;30721;49.380;7.736;2023-04-25T06:37:50;15.70;;;8.80;;
44985;SDS011;30721;49.380;7.736;2023-04-25T06:40:15;15.07;;;9.23;;
44985;SDS011;30721;49.380;7.736;2023-04-25T06:42:42;13.57;;;8.63;;
44985;SDS011;30721;49.380;7.736;2023-04-25T06:45:08;14.05;;;9.05;;
44985;SDS011;30721;49.380;7.736;2023-04-25T06:47:33;14.23;;;9.43;;
44985;SDS011;30721;49.380;7.736;2023-04-25T06:49:59;13.20;;;8.35;;
44985;SDS011;30721;49.380;7.736;2023-04-25T06:52:24;11.80;;;7.38;;
44985;SDS011;30721;49.380;7.736;2023-04-25T06:54:50;15.45;;;9.15;;
44985;SDS011;30721;49.380;7.736;2023-04-25T06:57:15;12.80;;;8.75;;
44985;SDS011;30721;49.380;7.736;2023-04-25T06:59:40;13.32;;;8.77;;
44985;SDS011;30721;49.380;7.736;2023-04-25T07:02:06;12.70;;;8.07;;
44985;SDS011;30721;49.380;7.736;2023-04-25T07:04:31;13.55;;;8.27;;
44985;SDS011;30721;49.380;7.736;2023-04-25T07:06:57;12.63;;;8.27;;
44985;SDS011;30721;49.380;7.736;2023-04-25T07:09:22;12.18;;;8.00;;
44985;SDS011;30721;49.380;7.736;2023-04-25T07:11:48;11.35;;;7.95;;
44985;SDS011;30721;49.380;7.736;2023-04-25T07:14:13;12.13;;;8.27;;
44985;SDS011;30721;49.380;7.736;2023-04-25T07:16:40;12.35;;;6.68;;
44985;SDS011;30721;49.380;7.736;2023-04-25T07:19:05;11.98;;;7.88;;
44985;SDS011;30721;49.380;7.736;2023-04-25T07:21:30;12.70;;;7.63;;
44985;SDS011;30721;49.380;7.736;2023-04-25T07:23:56;12.45;;;8.70;;
44985;SDS011;30721;49.380;7.736;2023-04-25T07:26:22;11.23;;;7.22;;
44985;SDS011;30721;49.380;7.736;2023-04-25T07:28:47;9.95;;;6.68;;
44985;SDS011;30721;49.380;7.736;2023-04-25T07:31:16;11.63;;;7.85;;
44985;SDS011;30721;49.380;7.736;2023-04-25T07:33:43;11.23;;;7.25;;
44985;SDS011;30721;49.380;7.736;2023-04-25T07:36:10;11.02;;;7.78;;
44985;SDS011;30721;49.380;7.736;2023-04-25T07:38:35;11.75;;;6.97;;
44985;SDS011;30721;49.380;7.736;2023-04-25T07:41:01;11.45;;;6.75;;
44985;SDS011;30721;49.380;7.736;2023-04-25T07:43:26;12.13;;;8.43;;
44985;SDS011;30721;49.380;7.736;2023-04-25T07:45:52;9.52;;;7.28;;
44985;SDS011;30721;49.380;7.736;2023-04-25T07:48:17;10.68;;;7.40;;
44985;SDS011;30721;49.380;7.736;2023-04-25T07:50:43;11.90;;;8.13;;
44985;SDS011;30721;49.380;7.736;2023-04-25T07:53:09;10.45;;;6.80;;
44985;SDS011;30721;49.380;7.736;2023-04-25T07:55:35;10.68;;;7.22;;
44985;SDS011;30721;49.380;7.736;2023-04-25T07:58:01;12.57;;;8.25;;
44985;SDS011;30721;49.380;7.736;2023-04-25T08:00:28;12.57;;;8.07;;
44985;SDS011;30721;49.380;7.736;2023-04-25T08:02:53;12.32;;;8.55;;
44985;SDS011;30721;49.380;7.736;2023-04-25T08:05:19;12.50;;;8.63;;
44985;SDS011;30721;49.380;7.736;2023-04-25T08:07:44;12.50;;;8.52;;
44985;SDS011;30721;49.380;7.736;2023-04-25T08:10:10;11.40;;;8.43;;
44985;SDS011;30721;49.380;7.736;2023-04-25T08:12:36;14.75;;;8.52;;
44985;SDS011;30721;49.380;7.736;2023-04-25T08:15:03;15.43;;;9.27;;
44985;SDS011;30721;49.380;7.736;2023-04-25T08:17:28;16.20;;;9.70;;
44985;SDS011;30721;49.380;7.736;2023-04-25T08:19:54;13.70;;;9.38;;
44985;SDS011;30721;49.380;7.736;2023-04-25T08:22:20;13.95;;;9.23;;
44985;SDS011;30721;49.380;7.736;2023-04-25T08:24:45;14.75;;;9.38;;
44985;SDS011;30721;49.380;7.736;2023-04-25T08:27:11;12.45;;;8.13;;
44985;SDS011;30721;49.380;7.736;2023-04-25T08:29:37;11.00;;;8.18;;
44985;SDS011;30721;49.380;7.736;2023-04-25T08:32:02;10.32;;;6.63;;
44985;SDS011;30721;49.380;7.736;2023-04-25T08:34:28;9.48;;;6.72;;
44985;SDS011;30721;49.380;7.736;2023-04-25T08:36:53;10.18;;;7.13;;
44985;SDS011;30721;49.380;7.736;2023-04-25T08:39:19;9.80;;;6.93;;
44985;SDS011;30721;49.380;7.736;2023-04-25T08:41:46;7.00;;;5.03;;
44985;SDS011;30721;49.380;7.736;2023-04-25T08:44:11;7.88;;;5.53;;
44985;SDS011;30721;49.380;7.736;2023-04-25T08:46:40;8.68;;;5.80;;
44985;SDS011;30721;49.380;7.736;2023-04-25T08:49:06;10.55;;;6.60;;
44985;SDS011;30721;49.380;7.736;2023-04-25T08:51:32;11.43;;;6.20;;
44985;SDS011;30721;49.380;7.736;2023-04-25T08:54:01;13.30;;;6.20;;
44985;SDS011;30721;49.380;7.736;2023-04-25T08:56:33;9.57;;;6.30;;
44985;SDS011;30721;49.380;7.736;2023-04-25T08:59:00;11.05;;;6.95;;
44985;SDS011;30721;49.380;7.736;2023-04-25T09:01:27;11.98;;;7.90;;
44985;SDS011;30721;49.380;7.736;2023-04-25T09:03:52;15.18;;;8.15;;
44985;SDS011;30721;49.380;7.736;2023-04-25T09:06:18;13.82;;;8.32;;
44985;SDS011;30721;49.380;7.736;2023-04-25T09:08:44;16.80;;;9.38;;
44985;SDS011;30721;49.380;7.736;2023-04-25T09:11:09;15.20;;;8.73;;
44985;SDS011;30721;49.380;7.736;2023-04-25T09:13:35;17.15;;;9.32;;
44985;SDS011;30721;49.380;7.736;2023-04-25T09:16:00;16.50;;;9.55;;
44985;SDS011;30721;49.380;7.736;2023-04-25T09:18:27;13.48;;;8.23;;
44985;SDS011;30721;49.380;7.736;2023-04-25T09:20:54;13.70;;;7.82;;
44985;SDS011;30721;49.380;7.736;2023-04-25T09:23:21;12.60;;;8.18;;
44985;SDS011;30721;49.380;7.736;2023-04-25T09:25:48;12.52;;;8.02;;
44985;SDS011;30721;49.380;7.736;2023-04-25T09:28:14;17.05;;;9.10;;
44985;SDS011;30721;49.380;7.736;2023-04-25T09:30:40;15.23;;;8.07;;
44985;SDS011;30721;49.380;7.736;2023-04-25T09:33:06;12.38;;;6.95;;
44985;SDS011;30721;49.380;7.736;2023-04-25T09:35:40;12.65;;;7.55;;
44985;SDS011;30721;49.380;7.736;2023-04-25T09:38:11;15.07;;;8.13;;
44985;SDS011;30721;49.380;7.736;2023-04-25T09:43:10;13.50;;;7.70;;
44985;SDS011;30721;49.380;7.736;2023-04-25T09:45:41;14.65;;;7.95;;
44985;SDS011;30721;49.380;7.736;2023-04-25T09:48:11;13.60;;;7.55;;
44985;SDS011;30721;49.380;7.736;2023-04-25T09:50:38;14.13;;;8.10;;
44985;SDS011;30721;49.380;7.736;2023-04-25T09:53:04;15.02;;;8.75;;
44985;SDS011;30721;49.380;7.736;2023-04-25T09:55:31;17.05;;;8.50;;
44985;SDS011;30721;49.380;7.736;2023-04-25T09:57:57;12.55;;;7.50;;
44985;SDS011;30721;49.380;7.736;2023-04-25T10:00:25;10.88;;;6.40;;
44985;SDS011;30721;49.380;7.736;2023-04-25T10:02:51;10.63;;;6.40;;
44985;SDS011;30721;49.380;7.736;2023-04-25T10:05:18;11.52;;;6.88;;
44985;SDS011;30721;49.380;7.736;2023-04-25T10:07:43;13.38;;;7.38;;
44985;SDS011;30721;49.380;7.736;2023-04-25T10:10:09;12.27;;;6.70;;
44985;SDS011;30721;49.380;7.736;2023-04-25T10:12:37;9.85;;;6.25;;
44985;SDS011;30721;49.380;7.736;2023-04-25T10:15:05;13.27;;;6.63;;
44985;SDS011;30721;49.380;7.736;2023-04-25T10:17:33;11.10;;;6.53;;
44985;SDS011;30721;49.380;7.736;2023-04-25T10:19:59;13.35;;;7.72;;
44985;SDS011;30721;49.380;7.736;2023-04-25T10:22:35;11.60;;;6.05;;
44985;SDS011;30721;49.380;7.736;2023-04-25T10:25:03;11.13;;;5.78;;
44985;SDS011;30721;49.380;7.736;2023-04-25T10:27:29;12.18;;;6.75;;
44985;SDS011;30721;49.380;7.736;2023-04-25T10:32:32;9.82;;;6.75;;
44985;SDS011;30721;49.380;7.736;2023-04-25T10:35:04;10.55;;;6.20;;
44985;SDS011;30721;49.380;7.736;2023-04-25T10:37:35;11.38;;;7.75;;
44985;SDS011;30721;49.380;7.736;2023-04-25T10:40:07;11.52;;;6.30;;
44985;SDS011;30721;49.380;7.736;2023-04-25T10:42:34;13.70;;;6.88;;
44985;SDS011;30721;49.380;7.736;2023-04-25T10:45:01;10.38;;;6.70;;
44985;SDS011;30721;49.380;7.736;2023-04-25T10:47:34;9.02;;;6.07;;
44985;SDS011;30721;49.380;7.736;2023-04-25T10:50:04;11.52;;;6.72;;
44985;SDS011;30721;49.380;7.736;2023-04-25T10:52:30;12.45;;;6.65;;
44985;SDS011;30721;49.380;7.736;2023-04-25T10:54:58;9.88;;;5.88;;
44985;SDS011;30721;49.380;7.736;2023-04-25T10:59:59;11.70;;;5.85;;
44985;SDS011;30721;49.380;7.736;2023-04-25T11:02:26;10.75;;;5.82;;
44985;SDS011;30721;49.380;7.736;2023-04-25T11:04:53;9.80;;;5.93;;
44985;SDS011;30721;49.380;7.736;2023-04-25T11:10:04;11.38;;;5.82;;
44985;SDS011;30721;49.380;7.736;2023-04-25T11:12:30;8.80;;;5.20;;
44985;SDS011;30721;49.380;7.736;2023-04-25T11:15:00;10.38;;;6.70;;
44985;SDS011;30721;49.380;7.736;2023-04-25T11:17:29;10.05;;;6.10;;
44985;SDS011;30721;49.380;7.736;2023-04-25T11:19:55;9.18;;;5.70;;
44985;SDS011;30721;49.380;7.736;2023-04-25T11:22:21;7.85;;;5.38;;
44985;SDS011;30721;49.380;7.736;2023-04-25T11:24:47;7.03;;;4.97;;
44985;SDS011;30721;49.380;7.736;2023-04-25T11:27:12;5.70;;;3.85;;
44985;SDS011;30721;49.380;7.736;2023-04-25T11:29:38;8.48;;;5.05;;
44985;SDS011;30721;49.380;7.736;2023-04-25T11:32:04;5.65;;;3.95;;
44985;SDS011;30721;49.380;7.736;2023-04-25T11:34:30;6.95;;;4.60;;
44985;SDS011;30721;49.380;7.736;2023-04-25T11:36:57;6.07;;;3.85;;
44985;SDS011;30721;49.380;7.736;2023-04-25T11:39:25;5.75;;;4.10;;
44985;SDS011;30721;49.380;7.736;2023-04-25T11:41:51;5.80;;;3.65;;
44985;SDS011;30721;49.380;7.736;2023-04-25T11:44:18;5.65;;;3.78;;
44985;SDS011;30721;49.380;7.736;2023-04-25T11:46:44;6.10;;;4.05;;
44985;SDS011;30721;49.380;7.736;2023-04-25T11:49:10;4.63;;;3.60;;
44985;SDS011;30721;49.380;7.736;2023-04-25T11:51:39;5.22;;;3.95;;
44985;SDS011;30721;49.380;7.736;2023-04-25T11:54:09;4.53;;;3.65;;
44985;SDS011;30721;49.380;7.736;2023-04-25T11:56:35;6.00;;;4.28;;
44985;SDS011;30721;49.380;7.736;2023-04-25T11:59:01;5.93;;;3.60;;
44985;SDS011;30721;49.380;7.736;2023-04-25T12:01:28;7.25;;;3.58;;
44985;SDS011;30721;49.380;7.736;2023-04-25T12:03:55;5.88;;;3.72;;
44985;SDS011;30721;49.380;7.736;2023-04-25T12:06:21;4.15;;;3.03;;
44985;SDS011;30721;49.380;7.736;2023-04-25T12:09:01;5.55;;;3.70;;
44985;SDS011;30721;49.380;7.736;2023-04-25T12:11:29;3.40;;;3.10;;
44985;SDS011;30721;49.380;7.736;2023-04-25T12:14:01;4.20;;;3.00;;
44985;SDS011;30721;49.380;7.736;2023-04-25T12:16:42;4.00;;;3.10;;
44985;SDS011;30721;49.380;7.736;2023-04-25T12:19:08;4.50;;;3.40;;
44985;SDS011;30721;49.380;7.736;2023-04-25T12:21:34;4.93;;;3.10;;
44985;SDS011;30721;49.380;7.736;2023-04-25T12:24:22;4.45;;;3.25;;
44985;SDS011;30721;49.380;7.736;2023-04-25T12:29:27;4.80;;;3.47;;
44985;SDS011;30721;49.380;7.736;2023-04-25T12:31:54;3.65;;;2.92;;
44985;SDS011;30721;49.380;7.736;2023-04-25T12:34:21;3.45;;;2.85;;
44985;SDS011;30721;49.380;7.736;2023-04-25T12:36:47;4.72;;;3.00;;
44985;SDS011;30721;49.380;7.736;2023-04-25T12:41:42;4.30;;;3.10;;
44985;SDS011;30721;49.380;7.736;2023-04-25T12:44:08;5.18;;;3.58;;
44985;SDS011;30721;49.380;7.736;2023-04-25T12:46:33;5.93;;;3.20;;
44985;SDS011;30721;49.380;7.736;2023-04-25T12:48:59;4.38;;;3.30;;
44985;SDS011;30721;49.380;7.736;2023-04-25T12:51:25;4.10;;;3.00;;
44985;SDS011;30721;49.380;7.736;2023-04-25T12:53:52;4.10;;;2.95;;
44985;SDS011;30721;49.380;7.736;2023-04-25T12:56:18;4.50;;;2.90;;
44985;SDS011;30721;49.380;7.736;2023-04-25T12:58:44;4.20;;;3.58;;
44985;SDS011;30721;49.380;7.736;2023-04-25T13:01:09;7.43;;;3.20;;
44985;SDS011;30721;49.380;7.736;2023-04-25T13:03:36;4.85;;;3.40;;
44985;SDS011;30721;49.380;7.736;2023-04-25T13:06:02;4.97;;;3.53;;
44985;SDS011;30721;49.380;7.736;2023-04-25T13:08:27;4.03;;;3.10;;
44985;SDS011;30721;49.380;7.736;2023-04-25T13:10:53;3.97;;;3.00;;
44985;SDS011;30721;49.380;7.736;2023-04-25T13:13:18;4.07;;;2.72;;
44985;SDS011;30721;49.380;7.736;2023-04-25T13:15:44;5.15;;;2.50;;
44985;SDS011;30721;49.380;7.736;2023-04-25T13:18:09;4.35;;;2.78;;
44985;SDS011;30721;49.380;7.736;2023-04-25T13:20:35;3.22;;;2.60;;
44985;SDS011;30721;49.380;7.736;2023-04-25T13:23:00;3.63;;;2.92;;
44985;SDS011;30721;49.380;7.736;2023-04-25T13:25:26;3.97;;;2.90;;
44985;SDS011;30721;49.380;7.736;2023-04-25T13:27:51;2.58;;;2.25;;
44985;SDS011;30721;49.380;7.736;2023-04-25T13:30:17;3.83;;;2.53;;
44985;SDS011;30721;49.380;7.736;2023-04-25T13:32:42;5.00;;;2.72;;
44985;SDS011;30721;49.380;7.736;2023-04-25T13:35:09;5.28;;;3.47;;
44985;SDS011;30721;49.380;7.736;2023-04-25T13:37:37;3.78;;;2.72;;
44985;SDS011;30721;49.380;7.736;2023-04-25T13:40:04;2.92;;;2.60;;
44985;SDS011;30721;49.380;7.736;2023-04-25T13:42:31;6.03;;;3.97;;
44985;SDS011;30721;49.380;7.736;2023-04-25T13:44:57;5.65;;;3.35;;
44985;SDS011;30721;49.380;7.736;2023-04-25T13:47:22;4.75;;;2.80;;
44985;SDS011;30721;49.380;7.736;2023-04-25T13:49:48;3.95;;;2.90;;
44985;SDS011;30721;49.380;7.736;2023-04-25T13:52:14;4.30;;;2.70;;
44985;SDS011;30721;49.380;7.736;2023-04-25T13:54:40;4.13;;;2.92;;
44985;SDS011;30721;49.380;7.736;2023-04-25T13:57:05;3.95;;;2.63;;
44985;SDS011;30721;49.380;7.736;2023-04-25T13:59:31;3.70;;;2.83;;
44985;SDS011;30721;49.380;7.736;2023-04-25T14:01:57;4.82;;;3.17;;
44985;SDS011;30721;49.380;7.736;2023-04-25T14:04:23;3.83;;;2.90;;
44985;SDS011;30721;49.380;7.736;2023-04-25T14:06:48;4.38;;;3.35;;
44985;SDS011;30721;49.380;7.736;2023-04-25T14:09:14;4.00;;;2.97;;
44985;SDS011;30721;49.380;7.736;2023-04-25T14:11:40;6.90;;;3.30;;
44985;SDS011;30721;49.380;7.736;2023-04-25T14:14:06;5.05;;;3.10;;
44985;SDS011;30721;49.380;7.736;2023-04-25T14:16:31;6.18;;;2.88;;
44985;SDS011;30721;49.380;7.736;2023-04-25T14:19:00;5.13;;;2.95;;
44985;SDS011;30721;49.380;7.736;2023-04-25T14:21:26;4.28;;;2.88;;
44985;SDS011;30721;49.380;7.736;2023-04-25T14:23:53;4.82;;;3.33;;
44985;SDS011;30721;49.380;7.736;2023-04-25T14:26:19;3.88;;;3.00;;
44985;SDS011;30721;49.380;7.736;2023-04-25T14:28:44;4.70;;;2.75;;
44985;SDS011;30721;49.380;7.736;2023-04-25T14:31:10;4.07;;;2.88;;
44985;SDS011;30721;49.380;7.736;2023-04-25T14:33:36;4.38;;;2.70;;
44985;SDS011;30721;49.380;7.736;2023-04-25T14:36:04;4.13;;;2.60;;
44985;SDS011;30721;49.380;7.736;2023-04-25T14:38:30;4.88;;;2.65;;
44985;SDS011;30721;49.380;7.736;2023-04-25T14:40:55;3.35;;;2.22;;
44985;SDS011;30721;49.380;7.736;2023-04-25T14:43:21;3.88;;;2.40;;
44985;SDS011;30721;49.380;7.736;2023-04-25T14:45:46;4.93;;;2.63;;
44985;SDS011;30721;49.380;7.736;2023-04-25T14:48:12;4.43;;;2.72;;